sensor_id;sensor_type;location;lat;lon;timestamp;pressure;altitude;pressure_sealevel;temperature;humidity
58662;BME280;44432;49.786;22.760;2022-08-21T00:02:27;98746.33;;;20.07;74.84
58662;BME280;44432;49.786;22.760;2022-08-21T00:04:58;98747.59;;;20.05;75.05
58662;BME280;44432;49.786;22.760;2022-08-21T00:07:29;98744.02;;;20.03;75.23
58662;BME280;44432;49.786;22.760;2022-08-21T00:09:59;98743.56;;;20.01;75.23
58662;BME280;44432;49.786;22.760;2022-08-21T00:12:30;98741.40;;;19.98;75.23
58662;BME280;44432;49.786;22.760;2022-08-21T00:15:01;98739.58;;;19.94;75.18
58662;BME280;44432;49.786;22.760;2022-08-21T00:17:32;98739.67;;;19.90;75.20
58662;BME280;44432;49.786;22.760;2022-08-21T00:20:06;98740.90;;;19.85;75.39
58662;BME280;44432;49.786;22.760;2022-08-21T00:22:39;98741.29;;;19.81;75.52
58662;BME280;44432;49.786;22.760;2022-08-21T00:25:11;98739.46;;;19.77;75.67
58662;BME280;44432;49.786;22.760;2022-08-21T00:27:42;98742.23;;;19.75;75.80
58662;BME280;44432;49.786;22.760;2022-08-21T00:30:16;98741.52;;;19.72;75.88
58662;BME280;44432;49.786;22.760;2022-08-21T00:32:48;98738.18;;;19.69;75.87
58662;BME280;44432;49.786;22.760;2022-08-21T00:35:22;98733.35;;;19.65;75.78
58662;BME280;44432;49.786;22.760;2022-08-21T00:37:54;98731.49;;;19.59;75.87
58662;BME280;44432;49.786;22.760;2022-08-21T00:40:29;98731.48;;;19.53;76.01
58662;BME280;44432;49.786;22.760;2022-08-21T00:43:01;98729.18;;;19.46;76.16
58662;BME280;44432;49.786;22.760;2022-08-21T00:45:33;98730.70;;;19.43;76.49
58662;BME280;44432;49.786;22.760;2022-08-21T00:48:04;98731.11;;;19.41;76.61
58662;BME280;44432;49.786;22.760;2022-08-21T00:50:43;98726.56;;;19.40;76.77
58662;BME280;44432;49.786;22.760;2022-08-21T00:53:14;98727.21;;;19.39;76.78
58662;BME280;44432;49.786;22.760;2022-08-21T00:55:46;98723.95;;;19.39;76.91
58662;BME280;44432;49.786;22.760;2022-08-21T00:58:17;98726.42;;;19.38;77.01
58662;BME280;44432;49.786;22.760;2022-08-21T01:00:49;98723.02;;;19.36;77.04
58662;BME280;44432;49.786;22.760;2022-08-21T01:03:23;98725.41;;;19.32;77.07
58662;BME280;44432;49.786;22.760;2022-08-21T01:05:54;98721.30;;;19.25;77.07
58662;BME280;44432;49.786;22.760;2022-08-21T01:08:25;98715.26;;;19.20;77.20
58662;BME280;44432;49.786;22.760;2022-08-21T01:10:56;98715.60;;;19.17;77.37
58662;BME280;44432;49.786;22.760;2022-08-21T01:13:31;98712.30;;;19.15;77.50
58662;BME280;44432;49.786;22.760;2022-08-21T01:16:05;98709.44;;;19.12;77.57
58662;BME280;44432;49.786;22.760;2022-08-21T01:18:38;98712.02;;;19.10;77.68
58662;BME280;44432;49.786;22.760;2022-08-21T01:21:12;98715.78;;;19.09;77.76
58662;BME280;44432;49.786;22.760;2022-08-21T01:23:45;98719.86;;;19.07;77.74
58662;BME280;44432;49.786;22.760;2022-08-21T01:26:21;98716.89;;;19.04;77.90
58662;BME280;44432;49.786;22.760;2022-08-21T01:28:56;98717.19;;;19.01;77.99
58662;BME280;44432;49.786;22.760;2022-08-21T01:31:29;98718.02;;;18.98;78.13
58662;BME280;44432;49.786;22.760;2022-08-21T01:34:02;98716.53;;;18.95;78.18
58662;BME280;44432;49.786;22.760;2022-08-21T01:36:33;98713.98;;;18.93;78.26
58662;BME280;44432;49.786;22.760;2022-08-21T01:39:05;98710.26;;;18.91;78.35
58662;BME280;44432;49.786;22.760;2022-08-21T01:41:36;98704.49;;;18.90;78.38
58662;BME280;44432;49.786;22.760;2022-08-21T01:44:07;98702.15;;;18.88;78.40
58662;BME280;44432;49.786;22.760;2022-08-21T01:46:37;98702.31;;;18.89;78.53
58662;BME280;44432;49.786;22.760;2022-08-21T01:49:08;98702.21;;;18.88;78.52
58662;BME280;44432;49.786;22.760;2022-08-21T01:51:39;98704.05;;;18.84;78.56
58662;BME280;44432;49.786;22.760;2022-08-21T01:54:10;98701.85;;;18.79;78.58
58662;BME280;44432;49.786;22.760;2022-08-21T01:56:43;98700.39;;;18.76;78.70
58662;BME280;44432;49.786;22.760;2022-08-21T01:59:14;98704.73;;;18.75;78.81
58662;BME280;44432;49.786;22.760;2022-08-21T02:01:44;98700.71;;;18.75;78.94
58662;BME280;44432;49.786;22.760;2022-08-21T02:04:15;98701.13;;;18.77;78.95
58662;BME280;44432;49.786;22.760;2022-08-21T02:06:46;98704.73;;;18.78;78.89
58662;BME280;44432;49.786;22.760;2022-08-21T02:09:16;98701.86;;;18.80;78.72
58662;BME280;44432;49.786;22.760;2022-08-21T02:11:47;98704.58;;;18.80;78.50
58662;BME280;44432;49.786;22.760;2022-08-21T02:14:18;98701.24;;;18.82;78.34
58662;BME280;44432;49.786;22.760;2022-08-21T02:16:48;98699.90;;;18.82;78.18
58662;BME280;44432;49.786;22.760;2022-08-21T02:19:19;98697.48;;;18.83;78.15
58662;BME280;44432;49.786;22.760;2022-08-21T02:21:50;98701.23;;;18.84;78.10
58662;BME280;44432;49.786;22.760;2022-08-21T02:24:20;98699.03;;;18.84;78.00
58662;BME280;44432;49.786;22.760;2022-08-21T02:26:51;98700.11;;;18.83;77.89
58662;BME280;44432;49.786;22.760;2022-08-21T02:29:21;98697.66;;;18.82;78.01
58662;BME280;44432;49.786;22.760;2022-08-21T02:31:52;98700.46;;;18.80;78.19
58662;BME280;44432;49.786;22.760;2022-08-21T02:34:23;98700.42;;;18.78;78.19
58662;BME280;44432;49.786;22.760;2022-08-21T02:36:54;98701.41;;;18.75;78.28
58662;BME280;44432;49.786;22.760;2022-08-21T02:39:24;98704.38;;;18.73;78.26
58662;BME280;44432;49.786;22.760;2022-08-21T02:41:55;98701.38;;;18.69;78.15
58662;BME280;44432;49.786;22.760;2022-08-21T02:44:26;98692.00;;;18.65;78.15
58662;BME280;44432;49.786;22.760;2022-08-21T02:46:57;98686.77;;;18.62;78.29
58662;BME280;44432;49.786;22.760;2022-08-21T02:49:27;98685.86;;;18.60;78.35
58662;BME280;44432;49.786;22.760;2022-08-21T02:51:58;98686.23;;;18.58;78.32
58662;BME280;44432;49.786;22.760;2022-08-21T02:54:28;98686.77;;;18.58;78.34
58662;BME280;44432;49.786;22.760;2022-08-21T02:56:59;98684.05;;;18.57;78.52
58662;BME280;44432;49.786;22.760;2022-08-21T02:59:29;98684.83;;;18.54;78.70
58662;BME280;44432;49.786;22.760;2022-08-21T03:02:00;98683.67;;;18.51;78.80
58662;BME280;44432;49.786;22.760;2022-08-21T03:04:31;98684.66;;;18.48;78.81
58662;BME280;44432;49.786;22.760;2022-08-21T03:07:02;98685.86;;;18.44;78.96
58662;BME280;44432;49.786;22.760;2022-08-21T03:09:32;98686.36;;;18.40;79.01
58662;BME280;44432;49.786;22.760;2022-08-21T03:12:03;98683.07;;;18.37;79.17
58662;BME280;44432;49.786;22.760;2022-08-21T03:14:34;98681.83;;;18.31;79.24
58662;BME280;44432;49.786;22.760;2022-08-21T03:17:04;98685.64;;;18.29;79.37
58662;BME280;44432;49.786;22.760;2022-08-21T03:19:36;98685.07;;;18.26;79.52
58662;BME280;44432;49.786;22.760;2022-08-21T03:22:07;98688.22;;;18.24;79.60
58662;BME280;44432;49.786;22.760;2022-08-21T03:24:37;98691.50;;;18.23;79.61
58662;BME280;44432;49.786;22.760;2022-08-21T03:27:08;98688.20;;;18.20;79.60
58662;BME280;44432;49.786;22.760;2022-08-21T03:29:39;98691.52;;;18.17;79.57
58662;BME280;44432;49.786;22.760;2022-08-21T03:32:10;98690.42;;;18.14;79.78
58662;BME280;44432;49.786;22.760;2022-08-21T03:34:40;98693.90;;;18.13;79.84
58662;BME280;44432;49.786;22.760;2022-08-21T03:37:11;98690.17;;;18.13;80.00
58662;BME280;44432;49.786;22.760;2022-08-21T03:39:43;98691.98;;;18.13;79.95
58662;BME280;44432;49.786;22.760;2022-08-21T03:42:13;98693.32;;;18.13;80.16
58662;BME280;44432;49.786;22.760;2022-08-21T03:44:44;98690.73;;;18.14;80.10
58662;BME280;44432;49.786;22.760;2022-08-21T03:47:14;98694.37;;;18.15;80.08
58662;BME280;44432;49.786;22.760;2022-08-21T03:49:45;98699.88;;;18.16;80.03
58662;BME280;44432;49.786;22.760;2022-08-21T03:52:16;98695.86;;;18.17;79.93
58662;BME280;44432;49.786;22.760;2022-08-21T03:54:47;98698.86;;;18.16;80.03
58662;BME280;44432;49.786;22.760;2022-08-21T03:57:18;98695.39;;;18.15;80.02
58662;BME280;44432;49.786;22.760;2022-08-21T03:59:49;98701.10;;;18.16;80.05
58662;BME280;44432;49.786;22.760;2022-08-21T04:02:21;98700.66;;;18.18;80.01
58662;BME280;44432;49.786;22.760;2022-08-21T04:04:52;98702.25;;;18.20;79.99
58662;BME280;44432;49.786;22.760;2022-08-21T04:07:22;98700.59;;;18.21;79.99
58662;BME280;44432;49.786;22.760;2022-08-21T04:09:53;98699.46;;;18.21;79.96
58662;BME280;44432;49.786;22.760;2022-08-21T04:12:23;98704.74;;;18.23;80.11
58662;BME280;44432;49.786;22.760;2022-08-21T04:14:54;98706.01;;;18.26;80.10
58662;BME280;44432;49.786;22.760;2022-08-21T04:17:25;98707.01;;;18.30;80.10
58662;BME280;44432;49.786;22.760;2022-08-21T04:19:56;98706.48;;;18.37;80.24
58662;BME280;44432;49.786;22.760;2022-08-21T04:22:26;98707.14;;;18.43;79.96
58662;BME280;44432;49.786;22.760;2022-08-21T04:24:57;98711.39;;;18.48;79.71
58662;BME280;44432;49.786;22.760;2022-08-21T04:27:27;98708.91;;;18.51;79.55
58662;BME280;44432;49.786;22.760;2022-08-21T04:29:58;98714.05;;;18.57;79.27
58662;BME280;44432;49.786;22.760;2022-08-21T04:32:29;98718.54;;;18.60;79.04
58662;BME280;44432;49.786;22.760;2022-08-21T04:35:05;98720.08;;;18.63;78.90
58662;BME280;44432;49.786;22.760;2022-08-21T04:37:36;98721.00;;;18.69;78.72
58662;BME280;44432;49.786;22.760;2022-08-21T04:40:09;98725.39;;;18.73;78.57
58662;BME280;44432;49.786;22.760;2022-08-21T04:42:45;98724.81;;;18.77;78.41
58662;BME280;44432;49.786;22.760;2022-08-21T04:45:21;98725.05;;;18.81;78.20
58662;BME280;44432;49.786;22.760;2022-08-21T04:47:54;98725.14;;;18.85;77.98
58662;BME280;44432;49.786;22.760;2022-08-21T04:50:28;98725.96;;;18.87;77.78
58662;BME280;44432;49.786;22.760;2022-08-21T04:53:02;98720.92;;;18.89;77.67
58662;BME280;44432;49.786;22.760;2022-08-21T04:55:33;98726.39;;;18.96;77.58
58662;BME280;44432;49.786;22.760;2022-08-21T04:58:04;98718.95;;;19.01;77.45
58662;BME280;44432;49.786;22.760;2022-08-21T05:00:35;98720.60;;;19.08;77.24
58662;BME280;44432;49.786;22.760;2022-08-21T05:03:07;98716.92;;;19.13;77.09
58662;BME280;44432;49.786;22.760;2022-08-21T05:05:39;98716.55;;;19.19;76.95
58662;BME280;44432;49.786;22.760;2022-08-21T05:08:14;98722.80;;;19.25;76.83
58662;BME280;44432;49.786;22.760;2022-08-21T05:10:46;98722.58;;;19.32;76.60
58662;BME280;44432;49.786;22.760;2022-08-21T05:13:17;98721.08;;;19.37;76.41
58662;BME280;44432;49.786;22.760;2022-08-21T05:15:48;98723.70;;;19.43;76.34
58662;BME280;44432;49.786;22.760;2022-08-21T05:18:19;98721.65;;;19.50;76.24
58662;BME280;44432;49.786;22.760;2022-08-21T05:20:49;98717.40;;;19.54;76.01
58662;BME280;44432;49.786;22.760;2022-08-21T05:23:20;98720.48;;;19.61;75.86
58662;BME280;44432;49.786;22.760;2022-08-21T05:25:51;98725.06;;;19.68;75.67
58662;BME280;44432;49.786;22.760;2022-08-21T05:28:21;98724.13;;;19.74;75.66
58662;BME280;44432;49.786;22.760;2022-08-21T05:30:52;98725.82;;;19.79;75.44
58662;BME280;44432;49.786;22.760;2022-08-21T05:33:23;98723.88;;;19.85;75.32
58662;BME280;44432;49.786;22.760;2022-08-21T05:35:55;98720.60;;;19.90;75.12
58662;BME280;44432;49.786;22.760;2022-08-21T05:38:26;98715.17;;;19.96;74.85
58662;BME280;44432;49.786;22.760;2022-08-21T05:40:57;98715.13;;;20.04;74.99
58662;BME280;44432;49.786;22.760;2022-08-21T05:43:28;98716.41;;;20.12;74.85
58662;BME280;44432;49.786;22.760;2022-08-21T05:45:58;98715.01;;;20.20;74.73
58662;BME280;44432;49.786;22.760;2022-08-21T05:48:29;98717.31;;;20.29;74.57
58662;BME280;44432;49.786;22.760;2022-08-21T05:51:06;98715.79;;;20.39;74.32
58662;BME280;44432;49.786;22.760;2022-08-21T05:53:38;98711.95;;;20.50;74.10
58662;BME280;44432;49.786;22.760;2022-08-21T05:56:12;98707.55;;;20.57;73.52
58662;BME280;44432;49.786;22.760;2022-08-21T05:58:43;98710.91;;;20.65;73.04
58662;BME280;44432;49.786;22.760;2022-08-21T06:01:14;98708.60;;;20.72;73.20
58662;BME280;44432;49.786;22.760;2022-08-21T06:03:44;98707.91;;;20.79;72.88
58662;BME280;44432;49.786;22.760;2022-08-21T06:06:15;98707.89;;;20.85;72.55
58662;BME280;44432;49.786;22.760;2022-08-21T06:08:46;98707.52;;;20.94;72.52
58662;BME280;44432;49.786;22.760;2022-08-21T06:11:16;98708.96;;;21.01;72.11
58662;BME280;44432;49.786;22.760;2022-08-21T06:13:47;98708.42;;;21.07;71.86
58662;BME280;44432;49.786;22.760;2022-08-21T06:16:17;98713.42;;;21.16;71.88
58662;BME280;44432;49.786;22.760;2022-08-21T06:18:48;98711.81;;;21.27;71.49
58662;BME280;44432;49.786;22.760;2022-08-21T06:21:19;98713.45;;;21.35;71.18
58662;BME280;44432;49.786;22.760;2022-08-21T06:23:49;98715.36;;;21.42;70.92
58662;BME280;44432;49.786;22.760;2022-08-21T06:26:20;98715.70;;;21.47;70.55
58662;BME280;44432;49.786;22.760;2022-08-21T06:28:51;98712.65;;;21.52;70.39
58662;BME280;44432;49.786;22.760;2022-08-21T06:31:25;98707.25;;;21.59;70.24
58662;BME280;44432;49.786;22.760;2022-08-21T06:33:56;98711.09;;;21.68;70.11
58662;BME280;44432;49.786;22.760;2022-08-21T06:36:27;98709.09;;;21.77;69.83
58662;BME280;44432;49.786;22.760;2022-08-21T06:38:57;98709.23;;;21.88;69.42
58662;BME280;44432;49.786;22.760;2022-08-21T06:41:28;98707.16;;;21.96;69.24
58662;BME280;44432;49.786;22.760;2022-08-21T06:43:59;98706.02;;;22.04;68.85
58662;BME280;44432;49.786;22.760;2022-08-21T06:46:30;98703.46;;;22.12;68.73
58662;BME280;44432;49.786;22.760;2022-08-21T06:49:01;98698.05;;;22.22;68.32
58662;BME280;44432;49.786;22.760;2022-08-21T06:51:32;98701.52;;;22.28;68.18
58662;BME280;44432;49.786;22.760;2022-08-21T06:54:03;98700.09;;;22.34;67.91
58662;BME280;44432;49.786;22.760;2022-08-21T06:56:34;98704.06;;;22.39;67.69
58662;BME280;44432;49.786;22.760;2022-08-21T06:59:07;98701.55;;;22.45;67.59
58662;BME280;44432;49.786;22.760;2022-08-21T07:01:37;98693.04;;;22.50;67.17
58662;BME280;44432;49.786;22.760;2022-08-21T07:04:08;98691.42;;;22.58;67.08
58662;BME280;44432;49.786;22.760;2022-08-21T07:06:39;98694.62;;;22.62;66.82
58662;BME280;44432;49.786;22.760;2022-08-21T07:09:10;98691.11;;;22.66;66.65
58662;BME280;44432;49.786;22.760;2022-08-21T07:11:40;98693.92;;;22.75;66.78
58662;BME280;44432;49.786;22.760;2022-08-21T07:14:11;98691.48;;;22.83;66.31
58662;BME280;44432;49.786;22.760;2022-08-21T07:16:42;98691.02;;;22.88;65.98
58662;BME280;44432;49.786;22.760;2022-08-21T07:19:12;98688.01;;;22.94;65.86
58662;BME280;44432;49.786;22.760;2022-08-21T07:21:43;98690.45;;;23.02;65.70
58662;BME280;44432;49.786;22.760;2022-08-21T07:24:14;98693.04;;;23.10;65.37
58662;BME280;44432;49.786;22.760;2022-08-21T07:26:44;98690.41;;;23.18;65.34
58662;BME280;44432;49.786;22.760;2022-08-21T07:29:15;98690.58;;;23.30;65.38
58662;BME280;44432;49.786;22.760;2022-08-21T07:31:46;98685.52;;;23.42;65.01
58662;BME280;44432;49.786;22.760;2022-08-21T07:34:17;98681.05;;;23.53;64.67
58662;BME280;44432;49.786;22.760;2022-08-21T07:36:48;98677.00;;;23.63;64.45
58662;BME280;44432;49.786;22.760;2022-08-21T07:39:18;98671.87;;;23.74;64.33
58662;BME280;44432;49.786;22.760;2022-08-21T07:41:49;98668.10;;;23.88;64.13
58662;BME280;44432;49.786;22.760;2022-08-21T07:44:20;98666.40;;;23.98;63.80
58662;BME280;44432;49.786;22.760;2022-08-21T07:46:51;98669.59;;;24.07;63.44
58662;BME280;44432;49.786;22.760;2022-08-21T07:49:21;98668.13;;;24.12;62.99
58662;BME280;44432;49.786;22.760;2022-08-21T07:51:52;98665.50;;;24.17;62.84
58662;BME280;44432;49.786;22.760;2022-08-21T07:54:23;98664.84;;;24.23;62.59
58662;BME280;44432;49.786;22.760;2022-08-21T07:56:53;98665.38;;;24.29;62.44
58662;BME280;44432;49.786;22.760;2022-08-21T07:59:24;98664.40;;;24.37;62.24
58662;BME280;44432;49.786;22.760;2022-08-21T08:01:55;98663.63;;;24.45;62.27
58662;BME280;44432;49.786;22.760;2022-08-21T08:04:25;98664.42;;;24.51;61.65
58662;BME280;44432;49.786;22.760;2022-08-21T08:06:56;98659.34;;;24.53;61.63
58662;BME280;44432;49.786;22.760;2022-08-21T08:09:27;98659.09;;;24.56;61.46
58662;BME280;44432;49.786;22.760;2022-08-21T08:11:57;98657.79;;;24.60;61.24
58662;BME280;44432;49.786;22.760;2022-08-21T08:14:28;98657.64;;;24.67;61.27
58662;BME280;44432;49.786;22.760;2022-08-21T08:16:59;98651.84;;;24.74;61.20
58662;BME280;44432;49.786;22.760;2022-08-21T08:19:31;98651.05;;;24.79;60.57
58662;BME280;44432;49.786;22.760;2022-08-21T08:22:11;98652.60;;;24.79;60.33
58662;BME280;44432;49.786;22.760;2022-08-21T08:24:42;98647.61;;;24.84;60.54
58662;BME280;44432;49.786;22.760;2022-08-21T08:27:12;98653.40;;;24.91;60.56
58662;BME280;44432;49.786;22.760;2022-08-21T08:29:43;98650.20;;;24.99;60.31
58662;BME280;44432;49.786;22.760;2022-08-21T08:32:15;98649.94;;;25.04;59.95
58662;BME280;44432;49.786;22.760;2022-08-21T08:34:45;98644.08;;;25.08;59.69
58662;BME280;44432;49.786;22.760;2022-08-21T08:37:18;98650.42;;;25.18;59.67
58662;BME280;44432;49.786;22.760;2022-08-21T08:39:49;98650.02;;;25.25;59.15
58662;BME280;44432;49.786;22.760;2022-08-21T08:42:25;98646.35;;;25.29;59.00
58662;BME280;44432;49.786;22.760;2022-08-21T08:44:59;98650.56;;;25.40;58.84
58662;BME280;44432;49.786;22.760;2022-08-21T08:47:31;98649.73;;;25.54;58.83
58662;BME280;44432;49.786;22.760;2022-08-21T08:50:07;98650.45;;;25.67;58.39
58662;BME280;44432;49.786;22.760;2022-08-21T08:52:43;98649.26;;;25.81;58.12
58662;BME280;44432;49.786;22.760;2022-08-21T08:55:18;98645.31;;;25.94;58.19
58662;BME280;44432;49.786;22.760;2022-08-21T08:57:51;98644.38;;;26.05;57.72
58662;BME280;44432;49.786;22.760;2022-08-21T09:00:23;98640.52;;;26.14;57.21
58662;BME280;44432;49.786;22.760;2022-08-21T09:02:57;98643.00;;;26.16;56.84
58662;BME280;44432;49.786;22.760;2022-08-21T09:05:33;98637.15;;;26.11;56.43
58662;BME280;44432;49.786;22.760;2022-08-21T09:08:20;98635.69;;;26.11;56.68
58662;BME280;44432;49.786;22.760;2022-08-21T09:11:01;98633.24;;;26.18;56.98
58662;BME280;44432;49.786;22.760;2022-08-21T09:13:43;98631.96;;;26.33;56.76
58662;BME280;44432;49.786;22.760;2022-08-21T09:16:24;98625.64;;;26.42;56.18
58662;BME280;44432;49.786;22.760;2022-08-21T09:19:03;98621.81;;;26.54;56.01
58662;BME280;44432;49.786;22.760;2022-08-21T09:21:43;98617.98;;;26.68;55.91
58662;BME280;44432;49.786;22.760;2022-08-21T09:24:31;98618.67;;;26.80;55.61
58662;BME280;44432;49.786;22.760;2022-08-21T09:27:06;98614.86;;;26.86;55.31
58662;BME280;44432;49.786;22.760;2022-08-21T09:29:39;98615.27;;;26.86;54.60
58662;BME280;44432;49.786;22.760;2022-08-21T09:32:11;98612.11;;;26.82;54.64
58662;BME280;44432;49.786;22.760;2022-08-21T09:34:54;98608.93;;;26.87;54.82
58662;BME280;44432;49.786;22.760;2022-08-21T09:37:25;98611.96;;;27.00;54.56
58662;BME280;44432;49.786;22.760;2022-08-21T09:39:56;98606.59;;;27.21;54.25
58662;BME280;44432;49.786;22.760;2022-08-21T09:42:29;98599.52;;;27.40;53.83
58662;BME280;44432;49.786;22.760;2022-08-21T09:45:11;98595.27;;;27.58;53.45
58662;BME280;44432;49.786;22.760;2022-08-21T09:47:43;98594.04;;;27.75;52.87
58662;BME280;44432;49.786;22.760;2022-08-21T09:50:18;98592.60;;;27.95;52.44
58662;BME280;44432;49.786;22.760;2022-08-21T09:52:52;98584.89;;;28.11;51.54
58662;BME280;44432;49.786;22.760;2022-08-21T09:55:32;98586.56;;;28.23;50.84
58662;BME280;44432;49.786;22.760;2022-08-21T09:58:29;98586.23;;;28.36;50.80
58662;BME280;44432;49.786;22.760;2022-08-21T10:01:01;98588.32;;;28.44;49.88
58662;BME280;44432;49.786;22.760;2022-08-21T10:03:33;98588.65;;;28.53;48.84
58662;BME280;44432;49.786;22.760;2022-08-21T10:06:05;98581.64;;;28.64;48.60
58662;BME280;44432;49.786;22.760;2022-08-21T10:08:40;98578.81;;;28.81;47.60
58662;BME280;44432;49.786;22.760;2022-08-21T10:11:12;98581.30;;;28.96;47.44
58662;BME280;44432;49.786;22.760;2022-08-21T10:13:54;98582.57;;;29.10;47.27
58662;BME280;44432;49.786;22.760;2022-08-21T10:16:35;98579.89;;;29.29;46.51
58662;BME280;44432;49.786;22.760;2022-08-21T10:19:20;98572.36;;;29.42;45.95
58662;BME280;44432;49.786;22.760;2022-08-21T10:22:02;98568.27;;;29.56;45.82
58662;BME280;44432;49.786;22.760;2022-08-21T10:24:44;98579.11;;;29.76;45.26
58662;BME280;44432;49.786;22.760;2022-08-21T10:27:27;98578.94;;;29.86;44.43
58662;BME280;44432;49.786;22.760;2022-08-21T10:30:03;98582.56;;;29.92;43.94
58662;BME280;44432;49.786;22.760;2022-08-21T10:32:50;98573.61;;;29.95;43.21
58662;BME280;44432;49.786;22.760;2022-08-21T10:35:27;98577.63;;;30.01;43.00
58662;BME280;44432;49.786;22.760;2022-08-21T10:41:03;98578.11;;;30.01;42.35
58662;BME280;44432;49.786;22.760;2022-08-21T10:43:45;98580.11;;;30.04;42.41
58662;BME280;44432;49.786;22.760;2022-08-21T10:46:21;98579.05;;;30.05;41.71
58662;BME280;44432;49.786;22.760;2022-08-21T10:49:02;98578.81;;;30.05;41.62
58662;BME280;44432;49.786;22.760;2022-08-21T10:51:48;98572.05;;;30.13;41.75
58662;BME280;44432;49.786;22.760;2022-08-21T10:54:29;98571.81;;;30.22;41.24
58662;BME280;44432;49.786;22.760;2022-08-21T10:57:04;98572.39;;;30.28;41.41
58662;BME280;44432;49.786;22.760;2022-08-21T10:59:42;98571.86;;;30.33;41.49
58662;BME280;44432;49.786;22.760;2022-08-21T11:02:19;98571.66;;;30.39;41.57
58662;BME280;44432;49.786;22.760;2022-08-21T11:04:56;98574.34;;;30.40;40.89
58662;BME280;44432;49.786;22.760;2022-08-21T11:07:33;98575.09;;;30.35;40.51
58662;BME280;44432;49.786;22.760;2022-08-21T11:10:12;98576.60;;;30.24;40.21
58662;BME280;44432;49.786;22.760;2022-08-21T11:12:47;98578.63;;;30.11;40.22
58662;BME280;44432;49.786;22.760;2022-08-21T11:15:33;98574.98;;;30.04;40.31
58662;BME280;44432;49.786;22.760;2022-08-21T11:18:17;98569.83;;;29.97;40.76
58662;BME280;44432;49.786;22.760;2022-08-21T11:20:59;98569.08;;;29.98;41.17
58662;BME280;44432;49.786;22.760;2022-08-21T11:23:38;98568.58;;;30.00;41.40
58662;BME280;44432;49.786;22.760;2022-08-21T11:26:13;98562.29;;;29.97;41.15
58662;BME280;44432;49.786;22.760;2022-08-21T11:28:52;98560.80;;;29.97;41.06
58662;BME280;44432;49.786;22.760;2022-08-21T11:31:39;98558.42;;;29.98;40.61
58662;BME280;44432;49.786;22.760;2022-08-21T11:34:23;98562.14;;;30.04;40.21
58662;BME280;44432;49.786;22.760;2022-08-21T11:36:59;98559.48;;;30.10;39.78
58662;BME280;44432;49.786;22.760;2022-08-21T11:39:41;98555.36;;;30.20;40.04
58662;BME280;44432;49.786;22.760;2022-08-21T11:42:23;98552.81;;;30.34;40.51
58662;BME280;44432;49.786;22.760;2022-08-21T11:45:16;98553.46;;;30.43;40.45
58662;BME280;44432;49.786;22.760;2022-08-21T11:47:56;98551.52;;;30.48;39.71
58662;BME280;44432;49.786;22.760;2022-08-21T11:50:31;98554.85;;;30.51;39.46
58662;BME280;44432;49.786;22.760;2022-08-21T11:53:07;98548.15;;;30.51;39.08
58662;BME280;44432;49.786;22.760;2022-08-21T11:55:44;98548.73;;;30.39;38.76
58662;BME280;44432;49.786;22.760;2022-08-21T11:58:20;98548.23;;;30.30;39.13
58662;BME280;44432;49.786;22.760;2022-08-21T12:00:54;98547.52;;;30.20;38.53
58662;BME280;44432;49.786;22.760;2022-08-21T12:03:29;98549.37;;;30.11;38.73
58662;BME280;44432;49.786;22.760;2022-08-21T12:06:04;98547.41;;;30.10;38.73
58662;BME280;44432;49.786;22.760;2022-08-21T12:08:37;98540.93;;;30.05;38.92
58662;BME280;44432;49.786;22.760;2022-08-21T12:11:21;98538.64;;;30.03;38.87
58662;BME280;44432;49.786;22.760;2022-08-21T12:13:58;98533.65;;;30.00;38.90
58662;BME280;44432;49.786;22.760;2022-08-21T12:16:33;98533.70;;;29.94;39.08
58662;BME280;44432;49.786;22.760;2022-08-21T12:19:07;98527.93;;;29.93;39.41
58662;BME280;44432;49.786;22.760;2022-08-21T12:21:50;98525.54;;;29.94;39.53
58662;BME280;44432;49.786;22.760;2022-08-21T12:24:35;98524.47;;;30.02;39.53
58662;BME280;44432;49.786;22.760;2022-08-21T12:27:21;98525.27;;;30.17;38.98
58662;BME280;44432;49.786;22.760;2022-08-21T12:29:58;98514.77;;;30.30;38.79
58662;BME280;44432;49.786;22.760;2022-08-21T12:32:42;98512.52;;;30.43;38.45
58662;BME280;44432;49.786;22.760;2022-08-21T12:35:17;98513.55;;;30.61;38.37
58662;BME280;44432;49.786;22.760;2022-08-21T12:37:50;98514.20;;;30.76;38.27
58662;BME280;44432;49.786;22.760;2022-08-21T12:40:25;98515.35;;;30.94;37.77
58662;BME280;44432;49.786;22.760;2022-08-21T12:43:00;98515.93;;;31.02;37.90
58662;BME280;44432;49.786;22.760;2022-08-21T12:45:36;98514.04;;;31.00;37.77
58662;BME280;44432;49.786;22.760;2022-08-21T12:48:12;98516.14;;;30.95;37.79
58662;BME280;44432;49.786;22.760;2022-08-21T12:50:46;98513.06;;;30.78;37.62
58662;BME280;44432;49.786;22.760;2022-08-21T12:53:27;98509.73;;;30.61;37.66
58662;BME280;44432;49.786;22.760;2022-08-21T12:56:02;98507.52;;;30.47;37.92
58662;BME280;44432;49.786;22.760;2022-08-21T12:58:33;98507.77;;;30.38;38.01
58662;BME280;44432;49.786;22.760;2022-08-21T13:01:08;98499.66;;;30.29;37.88
58662;BME280;44432;49.786;22.760;2022-08-21T13:03:43;98500.48;;;30.27;38.19
58662;BME280;44432;49.786;22.760;2022-08-21T13:06:17;98501.48;;;30.26;38.00
58662;BME280;44432;49.786;22.760;2022-08-21T13:08:50;98500.09;;;30.31;37.81
58662;BME280;44432;49.786;22.760;2022-08-21T13:11:25;98499.39;;;30.35;37.55
58662;BME280;44432;49.786;22.760;2022-08-21T13:13:55;98497.71;;;30.42;37.55
58662;BME280;44432;49.786;22.760;2022-08-21T13:16:28;98497.58;;;30.47;37.57
58662;BME280;44432;49.786;22.760;2022-08-21T13:19:02;98496.39;;;30.55;37.39
58662;BME280;44432;49.786;22.760;2022-08-21T13:21:39;98493.66;;;30.58;37.34
58662;BME280;44432;49.786;22.760;2022-08-21T13:24:20;98493.05;;;30.59;37.33
58662;BME280;44432;49.786;22.760;2022-08-21T13:26:52;98496.19;;;30.61;37.27